sensor_id;sensor_type;location;lat;lon;timestamp;pressure;altitude;pressure_sealevel;temperature;humidity
39363;BME280;25088;43.238;23.110;2023-02-02T00:00:48;96512.84;;;5.68;51.64
39363;BME280;25088;43.238;23.110;2023-02-02T00:03:14;96525.66;;;5.80;51.28
39363;BME280;25088;43.238;23.110;2023-02-02T00:05:47;96506.47;;;5.63;51.69
39363;BME280;25088;43.238;23.110;2023-02-02T00:08:15;96525.94;;;5.71;50.96
39363;BME280;25088;43.238;23.110;2023-02-02T00:10:40;96534.53;;;5.68;50.89
39363;BME280;25088;43.238;23.110;2023-02-02T00:13:06;96538.28;;;5.67;51.53
39363;BME280;25088;43.238;23.110;2023-02-02T00:15:31;96536.41;;;5.68;49.71
39363;BME280;25088;43.238;23.110;2023-02-02T00:17:57;96539.94;;;5.68;50.02
39363;BME280;25088;43.238;23.110;2023-02-02T00:20:22;96538.28;;;5.67;49.95
39363;BME280;25088;43.238;23.110;2023-02-02T00:22:48;96531.66;;;5.63;49.14
39363;BME280;25088;43.238;23.110;2023-02-02T00:25:14;96527.38;;;5.74;48.23
39363;BME280;25088;43.238;23.110;2023-02-02T00:27:39;96531.06;;;5.80;48.07
39363;BME280;25088;43.238;23.110;2023-02-02T00:30:06;96510.06;;;5.75;47.64
39363;BME280;25088;43.238;23.110;2023-02-02T00:32:32;96519.78;;;5.83;47.83
39363;BME280;25088;43.238;23.110;2023-02-02T00:34:57;96526.19;;;5.88;47.20
39363;BME280;25088;43.238;23.110;2023-02-02T00:37:23;96518.88;;;5.89;47.53
39363;BME280;25088;43.238;23.110;2023-02-02T00:39:48;96513.06;;;5.85;47.37
39363;BME280;25088;43.238;23.110;2023-02-02T00:42:13;96521.19;;;5.92;47.58
39363;BME280;25088;43.238;23.110;2023-02-02T00:44:39;96521.53;;;5.95;47.05
39363;BME280;25088;43.238;23.110;2023-02-02T00:47:23;96520.31;;;5.91;47.54
39363;BME280;25088;43.238;23.110;2023-02-02T00:49:48;96515.09;;;5.90;47.85
39363;BME280;25088;43.238;23.110;2023-02-02T00:52:14;96509.16;;;5.81;48.27
39363;BME280;25088;43.238;23.110;2023-02-02T00:54:39;96497.19;;;5.70;48.51
39363;BME280;25088;43.238;23.110;2023-02-02T00:57:05;96502.19;;;5.74;48.82
39363;BME280;25088;43.238;23.110;2023-02-02T00:59:31;96499.31;;;5.68;48.80
39363;BME280;25088;43.238;23.110;2023-02-02T01:01:57;96497.81;;;5.73;48.82
39363;BME280;25088;43.238;23.110;2023-02-02T01:04:22;96481.72;;;5.59;48.94
39363;BME280;25088;43.238;23.110;2023-02-02T01:06:48;96493.44;;;5.71;47.86
39363;BME280;25088;43.238;23.110;2023-02-02T01:09:13;96499.63;;;5.79;47.94
39363;BME280;25088;43.238;23.110;2023-02-02T01:11:39;96488.94;;;5.84;47.54
39363;BME280;25088;43.238;23.110;2023-02-02T01:14:04;96509.78;;;5.83;47.38
39363;BME280;25088;43.238;23.110;2023-02-02T01:16:30;96499.75;;;5.84;47.33
39363;BME280;25088;43.238;23.110;2023-02-02T01:18:56;96504.75;;;5.87;47.03
39363;BME280;25088;43.238;23.110;2023-02-02T01:21:22;96506.59;;;5.86;47.20
39363;BME280;25088;43.238;23.110;2023-02-02T01:23:48;96502.22;;;5.92;47.06
39363;BME280;25088;43.238;23.110;2023-02-02T01:26:14;96497.19;;;5.89;46.86
39363;BME280;25088;43.238;23.110;2023-02-02T01:28:40;96499.03;;;5.95;46.01
39363;BME280;25088;43.238;23.110;2023-02-02T01:31:09;96508.75;;;6.03;46.60
39363;BME280;25088;43.238;23.110;2023-02-02T01:33:35;96500.00;;;6.01;46.79
39363;BME280;25088;43.238;23.110;2023-02-02T01:36:05;96485.09;;;5.91;46.48
39363;BME280;25088;43.238;23.110;2023-02-02T01:38:31;96495.50;;;5.94;46.70
39363;BME280;25088;43.238;23.110;2023-02-02T01:40:57;96496.78;;;5.92;46.69
39363;BME280;25088;43.238;23.110;2023-02-02T01:43:24;96509.88;;;5.95;46.69
39363;BME280;25088;43.238;23.110;2023-02-02T01:45:53;96496.63;;;5.87;46.58
39363;BME280;25088;43.238;23.110;2023-02-02T01:48:23;96495.72;;;5.93;45.85
39363;BME280;25088;43.238;23.110;2023-02-02T01:50:52;96496.13;;;5.90;46.42
39363;BME280;25088;43.238;23.110;2023-02-02T01:53:19;96478.47;;;5.87;46.11
39363;BME280;25088;43.238;23.110;2023-02-02T01:55:47;96474.31;;;5.85;46.54
39363;BME280;25088;43.238;23.110;2023-02-02T01:58:22;96483.41;;;5.90;46.41
39363;BME280;25088;43.238;23.110;2023-02-02T02:00:49;96480.41;;;5.80;46.76
39363;BME280;25088;43.238;23.110;2023-02-02T02:03:22;96469.53;;;5.68;46.87
39363;BME280;25088;43.238;23.110;2023-02-02T02:06:05;96459.97;;;5.66;46.53
39363;BME280;25088;43.238;23.110;2023-02-02T02:11:11;96455.06;;;5.56;46.85
39363;BME280;25088;43.238;23.110;2023-02-02T02:13:38;96484.34;;;5.66;47.35
39363;BME280;25088;43.238;23.110;2023-02-02T02:16:29;96480.88;;;5.59;47.49
39363;BME280;25088;43.238;23.110;2023-02-02T02:19:32;96486.38;;;5.52;47.32
39363;BME280;25088;43.238;23.110;2023-02-02T02:34:08;96485.28;;;5.35;48.44
39363;BME280;25088;43.238;23.110;2023-02-02T02:36:48;96483.66;;;5.34;46.33
39363;BME280;25088;43.238;23.110;2023-02-02T02:39:40;96485.22;;;5.41;46.38
39363;BME280;25088;43.238;23.110;2023-02-02T02:42:11;96485.91;;;5.55;45.63
39363;BME280;25088;43.238;23.110;2023-02-02T02:44:39;96488.03;;;5.53;46.59
39363;BME280;25088;43.238;23.110;2023-02-02T02:47:05;96484.63;;;5.39;47.08
39363;BME280;25088;43.238;23.110;2023-02-02T02:49:32;96466.28;;;5.23;46.76
39363;BME280;25088;43.238;23.110;2023-02-02T02:51:57;96497.09;;;5.40;46.64
39363;BME280;25088;43.238;23.110;2023-02-02T02:54:31;96488.75;;;5.42;46.38
39363;BME280;25088;43.238;23.110;2023-02-02T02:59:54;96489.91;;;5.53;45.82
39363;BME280;25088;43.238;23.110;2023-02-02T03:02:30;96494.03;;;5.55;46.14
39363;BME280;25088;43.238;23.110;2023-02-02T03:07:51;96499.16;;;5.45;46.05
39363;BME280;25088;43.238;23.110;2023-02-02T03:10:21;96497.06;;;5.47;46.72
39363;BME280;25088;43.238;23.110;2023-02-02T03:12:49;96494.41;;;5.40;47.32
39363;BME280;25088;43.238;23.110;2023-02-02T03:15:16;96501.78;;;5.33;47.08
39363;BME280;25088;43.238;23.110;2023-02-02T03:17:42;96497.56;;;5.37;46.85
39363;BME280;25088;43.238;23.110;2023-02-02T03:20:08;96495.22;;;5.41;47.21
39363;BME280;25088;43.238;23.110;2023-02-02T03:22:34;96488.97;;;5.40;47.69
39363;BME280;25088;43.238;23.110;2023-02-02T03:24:59;96482.19;;;5.31;48.39
39363;BME280;25088;43.238;23.110;2023-02-02T03:27:26;96477.19;;;5.35;47.82
39363;BME280;25088;43.238;23.110;2023-02-02T03:29:52;96482.88;;;5.27;47.77
39363;BME280;25088;43.238;23.110;2023-02-02T03:32:18;96480.41;;;5.25;47.34
39363;BME280;25088;43.238;23.110;2023-02-02T03:34:43;96474.53;;;5.28;46.51
39363;BME280;25088;43.238;23.110;2023-02-02T03:37:09;96471.88;;;5.22;47.35
39363;BME280;25088;43.238;23.110;2023-02-02T03:39:34;96494.25;;;5.35;46.62
39363;BME280;25088;43.238;23.110;2023-02-02T03:42:00;96500.03;;;5.39;46.96
39363;BME280;25088;43.238;23.110;2023-02-02T03:44:25;96489.22;;;5.39;46.50
39363;BME280;25088;43.238;23.110;2023-02-02T03:46:54;96466.63;;;5.27;46.83
39363;BME280;25088;43.238;23.110;2023-02-02T03:49:20;96485.28;;;5.35;47.67
39363;BME280;25088;43.238;23.110;2023-02-02T03:51:46;96489.81;;;5.23;47.72
39363;BME280;25088;43.238;23.110;2023-02-02T03:54:12;96483.75;;;5.21;47.19
39363;BME280;25088;43.238;23.110;2023-02-02T03:56:38;96486.03;;;5.24;48.44
39363;BME280;25088;43.238;23.110;2023-02-02T03:59:03;96483.00;;;5.13;48.11
39363;BME280;25088;43.238;23.110;2023-02-02T04:01:29;96480.91;;;5.15;47.68
39363;BME280;25088;43.238;23.110;2023-02-02T04:03:56;96481.56;;;5.11;47.71
39363;BME280;25088;43.238;23.110;2023-02-02T04:06:22;96479.53;;;5.06;47.90
39363;BME280;25088;43.238;23.110;2023-02-02T04:08:48;96479.69;;;5.11;48.22
39363;BME280;25088;43.238;23.110;2023-02-02T04:11:14;96465.06;;;5.19;47.16
39363;BME280;25088;43.238;23.110;2023-02-02T04:13:39;96474.66;;;5.15;48.93
39363;BME280;25088;43.238;23.110;2023-02-02T04:16:08;96485.09;;;5.11;48.19
39363;BME280;25088;43.238;23.110;2023-02-02T04:18:34;96481.31;;;4.94;49.97
39363;BME280;25088;43.238;23.110;2023-02-02T04:21:02;96480.31;;;4.88;48.12
39363;BME280;25088;43.238;23.110;2023-02-02T04:23:29;96477.72;;;5.00;48.75
39363;BME280;25088;43.238;23.110;2023-02-02T04:25:55;96483.44;;;5.10;47.72
39363;BME280;25088;43.238;23.110;2023-02-02T04:28:21;96472.84;;;5.09;48.24
39363;BME280;25088;43.238;23.110;2023-02-02T04:30:48;96481.03;;;5.02;49.12
39363;BME280;25088;43.238;23.110;2023-02-02T04:33:14;96479.75;;;5.05;48.93
39363;BME280;25088;43.238;23.110;2023-02-02T04:35:41;96472.03;;;5.08;48.42
39363;BME280;25088;43.238;23.110;2023-02-02T04:38:07;96473.75;;;5.21;47.19
39363;BME280;25088;43.238;23.110;2023-02-02T04:40:32;96464.78;;;5.27;46.29
39363;BME280;25088;43.238;23.110;2023-02-02T04:42:58;96465.13;;;5.31;46.68
39363;BME280;25088;43.238;23.110;2023-02-02T04:45:24;96461.84;;;5.47;45.24
39363;BME280;25088;43.238;23.110;2023-02-02T04:47:49;96450.19;;;5.47;45.87
39363;BME280;25088;43.238;23.110;2023-02-02T04:50:15;96462.38;;;5.56;45.64
39363;BME280;25088;43.238;23.110;2023-02-02T04:52:40;96459.50;;;5.51;46.25
39363;BME280;25088;43.238;23.110;2023-02-02T04:55:07;96446.66;;;5.64;44.31
39363;BME280;25088;43.238;23.110;2023-02-02T04:57:32;96451.63;;;5.67;44.46
39363;BME280;25088;43.238;23.110;2023-02-02T04:59:58;96458.44;;;5.88;43.69
39363;BME280;25088;43.238;23.110;2023-02-02T05:02:23;96455.59;;;5.83;43.55
39363;BME280;25088;43.238;23.110;2023-02-02T05:04:49;96473.13;;;5.99;43.24
39363;BME280;25088;43.238;23.110;2023-02-02T05:07:14;96474.53;;;6.02;43.16
39363;BME280;25088;43.238;23.110;2023-02-02T05:09:40;96446.72;;;5.94;42.45
39363;BME280;25088;43.238;23.110;2023-02-02T05:12:05;96471.28;;;6.11;42.38
39363;BME280;25088;43.238;23.110;2023-02-02T05:14:31;96470.31;;;6.06;42.64
39363;BME280;25088;43.238;23.110;2023-02-02T05:16:56;96476.03;;;6.16;41.95
39363;BME280;25088;43.238;23.110;2023-02-02T05:19:22;96477.22;;;6.20;42.33
39363;BME280;25088;43.238;23.110;2023-02-02T05:21:47;96462.84;;;6.19;41.61
39363;BME280;25088;43.238;23.110;2023-02-02T05:24:14;96480.84;;;6.32;41.42
39363;BME280;25088;43.238;23.110;2023-02-02T05:26:40;96481.31;;;6.41;41.33
39363;BME280;25088;43.238;23.110;2023-02-02T05:29:05;96468.56;;;6.30;41.82
39363;BME280;25088;43.238;23.110;2023-02-02T05:31:32;96474.00;;;6.41;42.05
39363;BME280;25088;43.238;23.110;2023-02-02T05:33:58;96473.66;;;6.38;42.20
39363;BME280;25088;43.238;23.110;2023-02-02T05:36:23;96474.63;;;6.43;42.21
39363;BME280;25088;43.238;23.110;2023-02-02T05:38:49;96478.59;;;6.41;43.53
39363;BME280;25088;43.238;23.110;2023-02-02T05:41:14;96481.66;;;6.33;42.46
39363;BME280;25088;43.238;23.110;2023-02-02T05:43:40;96476.16;;;6.21;42.67
39363;BME280;25088;43.238;23.110;2023-02-02T05:46:05;96474.78;;;6.30;42.99
39363;BME280;25088;43.238;23.110;2023-02-02T05:48:31;96488.50;;;6.35;43.07
39363;BME280;25088;43.238;23.110;2023-02-02T05:53:29;96492.56;;;6.26;42.99
39363;BME280;25088;43.238;23.110;2023-02-02T05:55:54;96487.13;;;6.14;42.94
39363;BME280;25088;43.238;23.110;2023-02-02T05:58:20;96485.13;;;6.21;42.78
39363;BME280;25088;43.238;23.110;2023-02-02T06:00:45;96477.06;;;6.33;42.98
39363;BME280;25088;43.238;23.110;2023-02-02T06:03:11;96476.53;;;6.25;42.54
39363;BME280;25088;43.238;23.110;2023-02-02T06:05:37;96462.44;;;6.34;42.12
39363;BME280;25088;43.238;23.110;2023-02-02T06:08:03;96482.19;;;6.53;42.70
39363;BME280;25088;43.238;23.110;2023-02-02T06:10:28;96469.56;;;6.47;41.78
39363;BME280;25088;43.238;23.110;2023-02-02T06:12:56;96473.69;;;6.50;41.86
39363;BME280;25088;43.238;23.110;2023-02-02T06:15:21;96468.53;;;6.60;42.12
39363;BME280;25088;43.238;23.110;2023-02-02T06:17:47;96454.81;;;6.43;42.02
39363;BME280;25088;43.238;23.110;2023-02-02T06:20:12;96481.81;;;6.50;42.57
39363;BME280;25088;43.238;23.110;2023-02-02T06:22:38;96491.25;;;6.47;42.86
39363;BME280;25088;43.238;23.110;2023-02-02T06:25:04;96481.00;;;6.49;43.15
39363;BME280;25088;43.238;23.110;2023-02-02T06:27:32;96483.13;;;6.47;42.18
39363;BME280;25088;43.238;23.110;2023-02-02T06:29:57;96468.69;;;6.35;42.43
39363;BME280;25088;43.238;23.110;2023-02-02T06:32:23;96476.13;;;6.39;43.12
39363;BME280;25088;43.238;23.110;2023-02-02T06:34:48;96482.13;;;6.41;43.03
39363;BME280;25088;43.238;23.110;2023-02-02T06:37:14;96495.41;;;6.61;43.17
39363;BME280;25088;43.238;23.110;2023-02-02T06:39:39;96484.63;;;6.43;43.92
39363;BME280;25088;43.238;23.110;2023-02-02T06:42:05;96487.81;;;6.40;43.45
39363;BME280;25088;43.238;23.110;2023-02-02T06:44:30;96489.94;;;6.38;43.86
39363;BME280;25088;43.238;23.110;2023-02-02T06:46:56;96492.28;;;6.46;43.99
39363;BME280;25088;43.238;23.110;2023-02-02T06:49:21;96490.66;;;7.10;43.37
39363;BME280;25088;43.238;23.110;2023-02-02T06:51:47;96485.47;;;7.79;41.83
39363;BME280;25088;43.238;23.110;2023-02-02T06:54:13;96478.75;;;8.10;40.79
39363;BME280;25088;43.238;23.110;2023-02-02T06:56:39;96470.41;;;8.28;40.43
39363;BME280;25088;43.238;23.110;2023-02-02T06:59:04;96477.31;;;7.56;40.30
39363;BME280;25088;43.238;23.110;2023-02-02T07:01:30;96481.72;;;7.33;41.05
39363;BME280;25088;43.238;23.110;2023-02-02T07:03:56;96482.28;;;7.00;41.87
39363;BME280;25088;43.238;23.110;2023-02-02T07:06:24;96478.38;;;6.84;42.73
39363;BME280;25088;43.238;23.110;2023-02-02T07:08:51;96474.66;;;6.55;43.45
39363;BME280;25088;43.238;23.110;2023-02-02T07:11:17;96472.31;;;6.29;43.14
39363;BME280;25088;43.238;23.110;2023-02-02T07:13:44;96485.53;;;6.67;43.40
39363;BME280;25088;43.238;23.110;2023-02-02T07:16:10;96474.59;;;7.56;42.67
39363;BME280;25088;43.238;23.110;2023-02-02T07:18:37;96442.75;;;8.03;40.60
39363;BME280;25088;43.238;23.110;2023-02-02T07:21:02;96468.31;;;8.19;41.00
39363;BME280;25088;43.238;23.110;2023-02-02T07:23:31;96455.75;;;8.41;41.28
39363;BME280;25088;43.238;23.110;2023-02-02T07:26:04;96453.88;;;8.59;40.35
39363;BME280;25088;43.238;23.110;2023-02-02T07:28:30;96430.47;;;9.08;39.89
39363;BME280;25088;43.238;23.110;2023-02-02T07:30:56;96446.72;;;9.37;38.08
39363;BME280;25088;43.238;23.110;2023-02-02T07:33:22;96431.94;;;9.71;37.96
39363;BME280;25088;43.238;23.110;2023-02-02T07:35:48;96438.41;;;10.31;37.11
39363;BME280;25088;43.238;23.110;2023-02-02T07:38:13;96410.94;;;10.16;37.23
39363;BME280;25088;43.238;23.110;2023-02-02T07:40:39;96425.31;;;10.33;36.79
39363;BME280;25088;43.238;23.110;2023-02-02T07:43:04;96441.00;;;9.77;37.51
39363;BME280;25088;43.238;23.110;2023-02-02T07:45:30;96446.88;;;8.79;39.40
39363;BME280;25088;43.238;23.110;2023-02-02T07:47:56;96445.13;;;8.28;40.95
39363;BME280;25088;43.238;23.110;2023-02-02T07:50:22;96443.94;;;7.95;42.62
39363;BME280;25088;43.238;23.110;2023-02-02T07:52:48;96451.00;;;7.56;43.53
39363;BME280;25088;43.238;23.110;2023-02-02T07:55:13;96450.31;;;7.37;44.47
39363;BME280;25088;43.238;23.110;2023-02-02T07:57:39;96445.56;;;7.68;44.71
39363;BME280;25088;43.238;23.110;2023-02-02T08:00:05;96412.03;;;8.19;43.58
39363;BME280;25088;43.238;23.110;2023-02-02T08:02:30;96435.94;;;8.91;42.19
39363;BME280;25088;43.238;23.110;2023-02-02T08:04:56;96397.41;;;9.38;41.86
39363;BME280;25088;43.238;23.110;2023-02-02T08:07:21;96407.06;;;9.46;40.90
39363;BME280;25088;43.238;23.110;2023-02-02T08:09:49;96415.16;;;9.41;41.53
39363;BME280;25088;43.238;23.110;2023-02-02T08:12:15;96413.03;;;10.08;40.47
39363;BME280;25088;43.238;23.110;2023-02-02T08:14:40;96396.59;;;10.03;40.44
39363;BME280;25088;43.238;23.110;2023-02-02T08:17:06;96396.78;;;10.41;39.99
39363;BME280;25088;43.238;23.110;2023-02-02T08:19:32;96389.63;;;10.67;38.70
39363;BME280;25088;43.238;23.110;2023-02-02T08:21:57;96388.75;;;10.93;39.38
39363;BME280;25088;43.238;23.110;2023-02-02T08:24:23;96364.28;;;11.51;38.29
39363;BME280;25088;43.238;23.110;2023-02-02T08:26:48;96357.16;;;11.07;38.18
39363;BME280;25088;43.238;23.110;2023-02-02T08:29:14;96375.88;;;10.88;38.33
39363;BME280;25088;43.238;23.110;2023-02-02T08:31:42;96400.69;;;10.82;38.62
39363;BME280;25088;43.238;23.110;2023-02-02T08:34:11;96390.09;;;11.28;38.16
39363;BME280;25088;43.238;23.110;2023-02-02T08:36:38;96422.84;;;11.23;39.08
39363;BME280;25088;43.238;23.110;2023-02-02T08:39:06;96394.72;;;11.22;38.50
39363;BME280;25088;43.238;23.110;2023-02-02T08:41:32;96400.03;;;11.39;39.00
39363;BME280;25088;43.238;23.110;2023-02-02T08:43:58;96386.41;;;10.43;40.31
39363;BME280;25088;43.238;23.110;2023-02-02T08:46:24;96400.53;;;10.13;40.72
39363;BME280;25088;43.238;23.110;2023-02-02T08:48:50;96412.03;;;10.15;40.69
39363;BME280;25088;43.238;23.110;2023-02-02T08:51:17;96395.22;;;10.01;41.33
39363;BME280;25088;43.238;23.110;2023-02-02T08:53:44;96385.25;;;10.12;41.53
39363;BME280;25088;43.238;23.110;2023-02-02T08:56:12;96397.84;;;9.91;41.39
39363;BME280;25088;43.238;23.110;2023-02-02T08:58:38;96413.94;;;9.92;41.86
39363;BME280;25088;43.238;23.110;2023-02-02T09:01:05;96409.69;;;10.01;41.06
39363;BME280;25088;43.238;23.110;2023-02-02T09:03:32;96394.13;;;9.58;42.37
39363;BME280;25088;43.238;23.110;2023-02-02T09:06:03;96401.75;;;9.78;41.92
39363;BME280;25088;43.238;23.110;2023-02-02T09:08:29;96402.16;;;9.26;42.66
39363;BME280;25088;43.238;23.110;2023-02-02T09:10:55;96386.50;;;8.83;43.78
39363;BME280;25088;43.238;23.110;2023-02-02T09:13:20;96411.16;;;8.59;44.15
39363;BME280;25088;43.238;23.110;2023-02-02T09:15:45;96401.53;;;8.51;44.87
39363;BME280;25088;43.238;23.110;2023-02-02T09:18:11;96401.03;;;8.71;44.29
39363;BME280;25088;43.238;23.110;2023-02-02T09:20:36;96424.44;;;9.23;43.57
39363;BME280;25088;43.238;23.110;2023-02-02T09:23:03;96399.81;;;8.96;44.20
39363;BME280;25088;43.238;23.110;2023-02-02T09:25:29;96425.28;;;8.56;44.85
39363;BME280;25088;43.238;23.110;2023-02-02T09:28:06;96422.22;;;8.69;45.54
39363;BME280;25088;43.238;23.110;2023-02-02T09:30:32;96427.56;;;9.15;44.02
39363;BME280;25088;43.238;23.110;2023-02-02T09:32:57;96390.97;;;8.89;45.16
39363;BME280;25088;43.238;23.110;2023-02-02T09:35:23;96408.03;;;9.01;44.79
39363;BME280;25088;43.238;23.110;2023-02-02T09:37:48;96411.66;;;9.06;44.58
39363;BME280;25088;43.238;23.110;2023-02-02T09:40:17;96416.38;;;8.77;45.49
39363;BME280;25088;43.238;23.110;2023-02-02T09:43:19;96413.22;;;8.52;46.01
39363;BME280;25088;43.238;23.110;2023-02-02T09:49:01;96409.44;;;8.53;46.53
39363;BME280;25088;43.238;23.110;2023-02-02T09:51:33;96423.06;;;8.13;48.14
39363;BME280;25088;43.238;23.110;2023-02-02T09:54:10;96405.31;;;7.93;47.91
39363;BME280;25088;43.238;23.110;2023-02-02T09:56:41;96408.88;;;7.82;48.30
39363;BME280;25088;43.238;23.110;2023-02-02T09:59:30;96397.47;;;7.68;48.91
39363;BME280;25088;43.238;23.110;2023-02-02T10:02:03;96385.94;;;7.49;48.28
39363;BME280;25088;43.238;23.110;2023-02-02T10:04:35;96413.41;;;7.76;49.14
39363;BME280;25088;43.238;23.110;2023-02-02T10:07:13;96393.41;;;7.42;49.30
39363;BME280;25088;43.238;23.110;2023-02-02T10:09:49;96393.75;;;7.46;49.31
39363;BME280;25088;43.238;23.110;2023-02-02T10:23:38;96412.63;;;7.53;49.58
39363;BME280;25088;43.238;23.110;2023-02-02T10:29:29;96388.84;;;7.60;49.76
39363;BME280;25088;43.238;23.110;2023-02-02T10:34:49;96402.47;;;7.88;49.44
39363;BME280;25088;43.238;23.110;2023-02-02T10:45:14;96416.81;;;9.64;45.25
39363;BME280;25088;43.238;23.110;2023-02-02T10:47:42;96401.16;;;9.54;45.21
39363;BME280;25088;43.238;23.110;2023-02-02T10:50:18;96407.69;;;10.41;43.36
39363;BME280;25088;43.238;23.110;2023-02-02T10:53:05;96412.22;;;10.89;41.81
39363;BME280;25088;43.238;23.110;2023-02-02T10:55:41;96390.06;;;10.26;43.36
39363;BME280;25088;43.238;23.110;2023-02-02T11:00:45;96409.34;;;9.98;43.05
39363;BME280;25088;43.238;23.110;2023-02-02T11:03:17;96411.44;;;9.69;44.99
39363;BME280;25088;43.238;23.110;2023-02-02T11:05:44;96413.16;;;9.53;45.08
39363;BME280;25088;43.238;23.110;2023-02-02T11:08:34;96425.13;;;9.52;44.68
39363;BME280;25088;43.238;23.110;2023-02-02T11:14:48;96423.75;;;9.32;45.48
39363;BME280;25088;43.238;23.110;2023-02-02T11:17:21;96403.50;;;8.90;46.39
39363;BME280;25088;43.238;23.110;2023-02-02T11:19:48;96416.63;;;8.93;46.09
39363;BME280;25088;43.238;23.110;2023-02-02T11:22:36;96411.34;;;9.03;46.15
39363;BME280;25088;43.238;23.110;2023-02-02T11:25:21;96413.06;;;8.92;45.17
39363;BME280;25088;43.238;23.110;2023-02-02T11:27:50;96397.47;;;9.04;45.41
39363;BME280;25088;43.238;23.110;2023-02-02T11:30:35;96389.16;;;8.77;44.46
39363;BME280;25088;43.238;23.110;2023-02-02T11:36:05;96392.13;;;8.76;44.77
39363;BME280;25088;43.238;23.110;2023-02-02T11:38:41;96384.63;;;8.83;45.00
39363;BME280;25088;43.238;23.110;2023-02-02T11:41:07;96393.94;;;8.87;43.68
39363;BME280;25088;43.238;23.110;2023-02-02T11:43:39;96339.53;;;8.70;44.14
39363;BME280;25088;43.238;23.110;2023-02-02T11:49:05;96399.53;;;8.97;43.88
39363;BME280;25088;43.238;23.110;2023-02-02T11:51:37;96395.75;;;8.98;44.13
39363;BME280;25088;43.238;23.110;2023-02-02T11:56:37;96399.91;;;9.23;43.75
39363;BME280;25088;43.238;23.110;2023-02-02T11:59:04;96394.25;;;9.46;43.70
39363;BME280;25088;43.238;23.110;2023-02-02T12:01:32;96388.19;;;9.61;43.57
39363;BME280;25088;43.238;23.110;2023-02-02T12:06:37;96353.06;;;11.05;41.48
39363;BME280;25088;43.238;23.110;2023-02-02T12:09:11;96356.56;;;11.95;39.68
39363;BME280;25088;43.238;23.110;2023-02-02T12:11:59;96353.88;;;13.63;37.67
39363;BME280;25088;43.238;23.110;2023-02-02T12:17:46;96334.81;;;15.92;34.08
39363;BME280;25088;43.238;23.110;2023-02-02T12:23:12;96359.41;;;15.84;32.71
39363;BME280;25088;43.238;23.110;2023-02-02T12:26:21;96354.94;;;15.35;33.76
39363;BME280;25088;43.238;23.110;2023-02-02T12:32:05;96425.25;;;11.99;47.43
39363;BME280;25088;43.238;23.110;2023-02-02T12:43:44;96461.84;;;7.68;62.83
39363;BME280;25088;43.238;23.110;2023-02-02T12:46:24;96449.84;;;7.52;64.15
39363;BME280;25088;43.238;23.110;2023-02-02T12:51:55;96452.44;;;7.23;65.76
39363;BME280;25088;43.238;23.110;2023-02-02T13:00:02;96482.78;;;6.97;68.98
39363;BME280;25088;43.238;23.110;2023-02-02T13:03:00;96488.78;;;6.87;69.99
39363;BME280;25088;43.238;23.110;2023-02-02T13:05:48;96495.25;;;6.86;69.63
39363;BME280;25088;43.238;23.110;2023-02-02T13:08:29;96490.84;;;6.73;71.65
39363;BME280;25088;43.238;23.110;2023-02-02T13:11:23;96498.56;;;6.46;74.72
39363;BME280;25088;43.238;23.110;2023-02-02T13:16:36;96502.69;;;6.19;76.32
39363;BME280;25088;43.238;23.110;2023-02-02T13:19:14;96517.50;;;6.35;77.24
39363;BME280;25088;43.238;23.110;2023-02-02T13:21:45;96520.81;;;6.37;77.34
39363;BME280;25088;43.238;23.110;2023-02-02T13:24:15;96535.88;;;6.33;76.34
39363;BME280;25088;43.238;23.110;2023-02-02T13:26:45;96542.13;;;6.33;77.11
39363;BME280;25088;43.238;23.110;2023-02-02T13:29:18;96537.28;;;6.35;79.62
39363;BME280;25088;43.238;23.110;2023-02-02T13:31:57;96539.09;;;6.41;82.26
39363;BME280;25088;43.238;23.110;2023-02-02T13:37:12;96535.91;;;6.14;79.10
39363;BME280;25088;43.238;23.110;2023-02-02T13:39:44;96550.56;;;6.25;79.21
39363;BME280;25088;43.238;23.110;2023-02-02T13:42:42;96542.44;;;6.25;78.61
39363;BME280;25088;43.238;23.110;2023-02-02T13:47:45;96538.59;;;6.14;81.68
39363;BME280;25088;43.238;23.110;2023-02-02T13:50:15;96555.16;;;6.06;82.54
39363;BME280;25088;43.238;23.110;2023-02-02T13:53:19;96564.22;;;6.00;85.29
39363;BME280;25088;43.238;23.110;2023-02-02T14:01:26;96524.38;;;5.21;93.01
39363;BME280;25088;43.238;23.110;2023-02-02T14:03:56;96526.47;;;4.93;95.57
39363;BME280;25088;43.238;23.110;2023-02-02T14:06:25;96530.22;;;4.68;98.89
39363;BME280;25088;43.238;23.110;2023-02-02T14:09:00;96522.00;;;4.49;100.00
39363;BME280;25088;43.238;23.110;2023-02-02T14:11:36;96511.00;;;4.44;100.00
39363;BME280;25088;43.238;23.110;2023-02-02T14:14:19;96523.06;;;4.41;100.00
39363;BME280;25088;43.238;23.110;2023-02-02T14:34:36;96493.72;;;4.77;84.69
39363;BME280;25088;43.238;23.110;2023-02-02T14:40:18;96492.84;;;4.83;75.24
39363;BME280;25088;43.238;23.110;2023-02-02T14:45:36;96473.28;;;4.81;74.13
39363;BME280;25088;43.238;23.110;2023-02-02T14:53:16;96510.84;;;5.21;66.11
39363;BME280;25088;43.238;23.110;2023-02-02T14:58:26;96490.59;;;5.05;64.51
39363;BME280;25088;43.238;23.110;2023-02-02T15:00:56;96508.91;;;5.28;62.31
39363;BME280;25088;43.238;23.110;2023-02-02T15:03:54;96495.31;;;5.34;62.98
39363;BME280;25088;43.238;23.110;2023-02-02T15:06:35;96483.75;;;5.21;64.29
39363;BME280;25088;43.238;23.110;2023-02-02T15:09:33;96505.38;;;5.27;62.97
39363;BME280;25088;43.238;23.110;2023-02-02T15:17:04;96510.31;;;5.30;62.71
39363;BME280;25088;43.238;23.110;2023-02-02T15:19:40;96513.59;;;5.39;62.79
39363;BME280;25088;43.238;23.110;2023-02-02T15:31:21;96497.69;;;5.24;65.03
39363;BME280;25088;43.238;23.110;2023-02-02T15:33:54;96503.84;;;5.13;64.69
39363;BME280;25088;43.238;23.110;2023-02-02T15:36:26;96507.22;;;5.08;64.87
39363;BME280;25088;43.238;23.110;2023-02-02T15:39:09;96504.28;;;5.10;62.93
39363;BME280;25088;43.238;23.110;2023-02-02T15:41:36;96516.97;;;5.09;62.26
39363;BME280;25088;43.238;23.110;2023-02-02T15:44:20;96522.16;;;5.11;61.23
39363;BME280;25088;43.238;23.110;2023-02-02T15:46:51;96509.19;;;5.19;60.54